Time;durP1;ratioP1;P1;durP2;ratioP2;P2;SDS_P1;SDS_P2;PMS_P1;PMS_P2;Temp;Humidity;BMP_temperature;BMP_pressure;BME280_temperature;BME280_humidity;BME280_pressure;Samples;Min_cycle;Max_cycle;Signal;HPM_P1;HPM_P2
2022/06/10 00:01:37;;;;;;;5.63;2.85;;;17.00;81.90;;;;;;5076038;28;20197;-85
2022/06/10 00:04:03;;;;;;;4.82;2.60;;;17.00;80.70;;;;;;5077110;28;20221;-85
2022/06/10 00:06:29;;;;;;;3.22;2.40;;;16.90;81.80;;;;;;5075833;28;20216;-85
2022/06/10 00:08:54;;;;;;;4.45;2.70;;;16.90;81.40;;;;;;5072855;28;20927;-85
2022/06/10 00:11:20;;;;;;;2.88;2.50;;;17.00;81.10;;;;;;5057633;28;20674;-85
2022/06/10 00:13:47;;;;;;;4.07;3.08;;;16.90;81.00;;;;;;5075542;28;20328;-85
2022/06/10 00:16:14;;;;;;;3.25;2.55;;;16.80;81.70;;;;;;5073148;28;20186;-85
2022/06/10 00:18:41;;;;;;;5.20;2.88;;;17.00;81.60;;;;;;5077173;28;20256;-85
2022/06/10 00:21:09;;;;;;;2.88;2.60;;;16.90;81.50;;;;;;5076131;28;20184;-85
2022/06/10 00:23:34;;;;;;;3.47;2.70;;;17.00;81.10;;;;;;5074794;28;20208;-85
2022/06/10 00:26:00;;;;;;;5.47;2.90;;;16.90;81.20;;;;;;5074675;28;20765;-85
2022/06/10 00:28:26;;;;;;;4.20;2.55;;;16.90;80.90;;;;;;5073381;28;20805;-85
2022/06/10 00:30:52;;;;;;;5.00;3.00;;;16.90;80.30;;;;;;5072136;28;20188;-85
2022/06/10 00:33:17;;;;;;;4.38;3.00;;;16.90;80.40;;;;;;5075956;28;20238;-85
2022/06/10 00:35:43;;;;;;;3.75;2.47;;;16.80;81.30;;;;;;5079012;28;20492;-85
2022/06/10 00:38:10;;;;;;;4.50;2.72;;;16.80;81.90;;;;;;5073380;28;20657;-86
2022/06/10 00:40:54;;;;;;;2.90;2.50;;;16.80;82.20;;;;;;5072345;28;20200;-85
2022/06/10 00:43:26;;;;;;;3.72;3.03;;;16.90;80.70;;;;;;5067037;28;20214;-85
2022/06/10 00:45:59;;;;;;;2.90;2.55;;;16.80;80.50;;;;;;5067898;28;20267;-86
2022/06/10 00:48:48;;;;;;;3.63;2.70;;;16.80;80.80;;;;;;5075636;28;20651;-86
2022/06/10 00:51:13;;;;;;;5.43;2.50;;;16.80;80.90;;;;;;5066430;28;20259;-86
2022/06/10 00:53:39;;;;;;;4.83;3.10;;;16.90;80.20;;;;;;5074281;28;20800;-85
2022/06/10 00:56:14;;;;;;;2.67;2.47;;;16.80;80.60;;;;;;5071999;28;20187;-85
2022/06/10 00:58:53;;;;;;;4.73;2.83;;;16.80;80.60;;;;;;5067125;28;20194;-85
2022/06/10 01:01:20;;;;;;;4.65;2.75;;;16.80;80.00;;;;;;5070590;28;20182;-85
2022/06/10 01:03:46;;;;;;;4.00;2.83;;;16.80;80.50;;;;;;5072750;28;20199;-86
2022/06/10 01:06:12;;;;;;;3.05;2.75;;;16.80;80.10;;;;;;5068074;28;20205;-85
2022/06/10 01:08:40;;;;;;;4.93;2.93;;;16.80;80.20;;;;;;5072459;28;20272;-86
2022/06/10 01:11:19;;;;;;;3.97;2.50;;;16.80;80.10;;;;;;5071913;28;20189;-85
2022/06/10 01:13:53;;;;;;;3.40;2.88;;;16.80;80.10;;;;;;5068011;28;20214;-85
2022/06/10 01:17:04;;;;;;;3.75;2.65;;;16.80;80.00;;;;;;5066917;28;20194;-85
2022/06/10 01:19:39;;;;;;;2.80;2.53;;;16.80;79.90;;;;;;5069498;28;20185;-85
2022/06/10 01:22:34;;;;;;;3.92;2.70;;;16.70;79.70;;;;;;5070804;28;20736;-85
2022/06/10 01:25:18;;;;;;;4.00;2.90;;;16.60;80.30;;;;;;5068919;28;20186;-86
2022/06/10 01:28:13;;;;;;;4.00;2.90;;;16.50;81.80;;;;;;5067951;28;20206;-85
2022/06/10 01:31:08;;;;;;;5.10;2.80;;;16.40;81.70;;;;;;5071931;28;20189;-85
2022/06/10 01:34:12;;;;;;;3.93;2.87;;;16.40;80.90;;;;;;5074524;28;20205;-86
2022/06/10 01:36:51;;;;;;;3.87;2.80;;;16.30;82.00;;;;;;5071017;28;20226;-85
2022/06/10 01:39:16;;;;;;;2.97;2.77;;;16.30;82.30;;;;;;5073955;28;20177;-85
2022/06/10 01:41:56;;;;;;;3.83;2.77;;;16.30;82.70;;;;;;5067465;28;20259;-85
2022/06/10 01:44:39;;;;;;;3.67;2.70;;;16.30;81.70;;;;;;5074650;28;20684;-86
2022/06/10 01:47:25;;;;;;;3.37;2.40;;;16.30;81.50;;;;;;5066340;28;20215;-85
2022/06/10 01:50:04;;;;;;;2.83;2.40;;;16.20;82.50;;;;;;5073474;28;20185;-85
2022/06/10 01:52:43;;;;;;;4.13;2.60;;;16.30;82.20;;;;;;5072697;28;20671;-85
2022/06/10 01:55:18;;;;;;;2.70;2.50;;;16.20;82.00;;;;;;5079686;28;20181;-85
2022/06/10 01:57:47;;;;;;;5.00;3.27;;;16.20;81.20;;;;;;5075852;28;20189;-85
2022/06/10 02:00:20;;;;;;;3.83;3.00;;;16.00;82.10;;;;;;5075643;28;20178;-85
2022/06/10 02:03:12;;;;;;;5.23;2.93;;;15.90;83.20;;;;;;5079263;28;20233;-85
2022/06/10 02:05:47;;;;;;;4.07;2.97;;;15.90;83.50;;;;;;5065195;28;20200;-85
2022/06/10 02:08:21;;;;;;;4.30;3.00;;;16.00;83.00;;;;;;5062533;28;20188;-85
2022/06/10 02:10:56;;;;;;;3.67;2.37;;;16.10;83.00;;;;;;5075732;28;20182;-85
2022/06/10 02:13:30;;;;;;;5.80;2.93;;;16.00;82.70;;;;;;5077983;28;20676;-85
2022/06/10 02:16:00;;;;;;;3.93;2.97;;;16.10;82.80;;;;;;5077969;28;20653;-85
2022/06/10 02:18:38;;;;;;;3.43;2.83;;;16.10;82.50;;;;;;5073250;28;20186;-86
2022/06/10 02:21:19;;;;;;;3.07;2.83;;;16.10;82.60;;;;;;5076759;28;20176;-85
2022/06/10 02:23:53;;;;;;;3.83;2.90;;;16.00;82.50;;;;;;5070681;28;20243;-86
2022/06/10 02:26:20;;;;;;;3.70;2.80;;;16.10;82.30;;;;;;5074763;28;20806;-83
2022/06/10 02:28:51;;;;;;;3.60;2.70;;;16.10;82.10;;;;;;5081952;28;20174;-83
2022/06/10 02:31:23;;;;;;;4.30;2.83;;;16.10;81.90;;;;;;5079216;28;20184;-83
2022/06/10 02:33:49;;;;;;;5.73;2.83;;;16.10;81.40;;;;;;5076789;28;20207;-85
2022/06/10 02:36:17;;;;;;;5.70;2.50;;;16.00;80.40;;;;;;5075868;28;20279;-85
2022/06/10 02:39:21;;;;;;;3.10;2.60;;;15.90;82.00;;;;;;5069638;28;20188;-85
2022/06/10 02:42:19;;;;;;;3.83;2.50;;;15.90;82.70;;;;;;5069154;28;20208;-86
2022/06/10 02:45:05;;;;;;;3.80;2.83;;;15.90;82.10;;;;;;5072409;28;20222;-86
2022/06/10 02:47:41;;;;;;;2.63;2.43;;;15.80;81.70;;;;;;5062543;28;20270;-85
2022/06/10 02:50:09;;;;;;;4.63;2.80;;;15.90;82.10;;;;;;5075245;28;20179;-85
2022/06/10 02:52:36;;;;;;;3.20;2.90;;;15.80;82.30;;;;;;5074472;28;20834;-85
2022/06/10 02:55:12;;;;;;;3.33;2.37;;;15.90;82.10;;;;;;5078323;28;20224;-86
2022/06/10 03:03:25;;;;;;;2.80;2.50;;;15.60;84.10;;;;;;5071659;28;20708;-85
2022/06/10 03:06:16;;;;;;;3.90;3.07;;;15.60;84.40;;;;;;5070604;28;20198;-85
2022/06/10 03:08:46;;;;;;;5.33;2.83;;;15.60;84.00;;;;;;5073286;28;20214;-85
2022/06/10 03:11:30;;;;;;;4.07;2.83;;;15.60;83.60;;;;;;5072021;28;20206;-85
2022/06/10 03:14:09;;;;;;;3.10;2.73;;;15.60;83.30;;;;;;5069558;28;20180;-85
2022/06/10 03:16:43;;;;;;;4.17;3.07;;;15.60;83.10;;;;;;5075250;28;20266;-85
2022/06/10 03:19:25;;;;;;;4.40;2.80;;;15.60;83.20;;;;;;5080054;28;20185;-85
2022/06/10 03:22:03;;;;;;;5.07;2.90;;;15.60;82.80;;;;;;5070361;28;20557;-85
2022/06/10 03:24:55;;;;;;;5.07;3.07;;;15.60;83.20;;;;;;5082695;28;20175;-85
2022/06/10 03:28:02;;;;;;;3.70;2.53;;;15.50;83.60;;;;;;5074945;28;20204;-85
2022/06/10 03:30:33;;;;;;;3.53;3.07;;;15.40;84.00;;;;;;5058828;28;20201;-85
2022/06/10 03:33:05;;;;;;;5.00;2.87;;;15.30;85.10;;;;;;5071058;28;20252;-85
2022/06/10 03:35:52;;;;;;;4.27;3.00;;;15.30;84.90;;;;;;5069801;28;20178;-86
2022/06/10 03:38:18;;;;;;;3.70;2.80;;;15.30;84.60;;;;;;5070042;28;20179;-85
2022/06/10 03:40:52;;;;;;;6.10;2.87;;;15.40;84.30;;;;;;5074421;28;20317;-85
2022/06/10 03:43:18;;;;;;;4.67;2.97;;;15.30;84.20;;;;;;5073787;28;20221;-85
2022/06/10 03:45:50;;;;;;;3.57;3.27;;;15.30;84.40;;;;;;5072294;28;20194;-85
2022/06/10 03:48:20;;;;;;;4.43;2.90;;;15.40;83.20;;;;;;5073581;28;20213;-85
2022/06/10 03:50:47;;;;;;;3.10;2.80;;;15.30;83.80;;;;;;5072839;28;20257;-85
2022/06/10 03:53:19;;;;;;;3.67;2.60;;;15.20;84.70;;;;;;5074623;28;20208;-85
2022/06/10 03:55:45;;;;;;;4.63;2.93;;;15.30;84.80;;;;;;5066453;28;20178;-85
2022/06/10 03:58:11;;;;;;;3.57;2.90;;;15.20;84.50;;;;;;5073397;28;20183;-85
2022/06/10 04:00:37;;;;;;;4.40;3.33;;;15.30;84.70;;;;;;5074866;28;20188;-85
2022/06/10 04:03:03;;;;;;;4.13;3.00;;;15.20;83.80;;;;;;5065227;28;20682;-85
2022/06/10 04:05:29;;;;;;;6.13;2.83;;;15.20;85.20;;;;;;5072812;28;20739;-85
2022/06/10 04:07:55;;;;;;;8.03;3.90;;;15.10;85.60;;;;;;5064582;28;20206;-85
2022/06/10 04:10:25;;;;;;;3.87;3.20;;;15.10;85.10;;;;;;5073018;28;20181;-85
2022/06/10 04:12:51;;;;;;;5.33;3.27;;;15.20;85.80;;;;;;5055665;28;20204;-85
2022/06/10 04:15:17;;;;;;;4.33;3.80;;;15.20;85.40;;;;;;5072387;28;20229;-85
2022/06/10 04:17:49;;;;;;;3.97;3.57;;;15.30;85.40;;;;;;5075841;28;20195;-85
2022/06/10 04:20:18;;;;;;;4.23;3.10;;;15.30;85.00;;;;;;5079470;28;20669;-85
2022/06/10 04:22:44;;;;;;;8.57;3.00;;;15.40;84.30;;;;;;5083337;28;20204;-85
2022/06/10 04:25:11;;;;;;;6.50;3.07;;;15.40;84.20;;;;;;5079697;28;20596;-85
2022/06/10 04:27:36;;;;;;;4.37;2.90;;;15.40;85.00;;;;;;5079958;28;20216;-86
2022/06/10 04:30:05;;;;;;;6.50;2.70;;;15.40;85.00;;;;;;5077781;28;20263;-84
2022/06/10 04:32:31;;;;;;;3.93;3.07;;;15.40;85.40;;;;;;5079986;28;20207;-84
2022/06/10 04:34:57;;;;;;;3.57;2.73;;;15.40;85.50;;;;;;5078912;28;20554;-81
2022/06/10 04:37:23;;;;;;;5.27;3.27;;;15.50;85.90;;;;;;5077546;28;20248;-83
2022/06/10 04:39:48;;;;;;;5.67;3.00;;;15.40;85.80;;;;;;5073236;28;20256;-83
2022/06/10 04:42:14;;;;;;;6.17;3.23;;;15.50;86.10;;;;;;5068221;28;20286;-83
2022/06/10 04:44:40;;;;;;;13.27;3.87;;;15.50;86.30;;;;;;5067946;28;20290;-82
2022/06/10 04:47:07;;;;;;;4.77;3.50;;;15.50;86.50;;;;;;5058368;28;20219;-83
2022/06/10 04:49:33;;;;;;;4.17;3.20;;;15.30;87.50;;;;;;5076452;28;20186;-83
2022/06/10 04:51:58;;;;;;;5.03;3.40;;;15.00;90.30;;;;;;5086429;28;20214;-82
2022/06/10 04:54:24;;;;;;;7.87;3.90;;;14.90;91.70;;;;;;5059658;28;20242;-83
2022/06/10 04:56:49;;;;;;;9.13;3.87;;;14.70;93.80;;;;;;5088224;28;20183;-82
2022/06/10 04:59:15;;;;;;;8.17;4.20;;;14.60;94.80;;;;;;5089135;28;20737;-82
2022/06/10 05:01:41;;;;;;;7.07;4.13;;;14.50;97.50;;;;;;5092317;28;20192;-82
2022/06/10 05:04:06;;;;;;;5.10;3.83;;;14.40;97.70;;;;;;5089795;28;20834;-82
2022/06/10 05:06:32;;;;;;;6.47;4.27;;;14.40;98.30;;;;;;5088333;28;20217;-83
2022/06/10 05:08:58;;;;;;;6.33;4.17;;;14.40;98.40;;;;;;5088971;28;20194;-82
2022/06/10 05:11:23;;;;;;;5.67;4.40;;;14.30;99.20;;;;;;5089283;28;20624;-82
2022/06/10 05:13:49;;;;;;;7.73;4.20;;;14.30;99.90;;;;;;5088680;28;20209;-82
2022/06/10 05:16:15;;;;;;;10.53;4.30;;;14.30;99.90;;;;;;5090761;28;20186;-82
2022/06/10 05:18:41;;;;;;;9.20;4.10;;;14.30;99.90;;;;;;5090361;28;20186;-82
2022/06/10 05:21:07;;;;;;;8.10;4.40;;;14.30;99.90;;;;;;5070455;28;20198;-82
2022/06/10 05:23:33;;;;;;;10.97;3.83;;;14.40;99.60;;;;;;5090163;28;20705;-83
2022/06/10 05:25:58;;;;;;;5.83;4.50;;;14.40;99.70;;;;;;5089225;28;20206;-82
2022/06/10 05:28:24;;;;;;;6.33;4.27;;;14.50;99.70;;;;;;5092296;28;20633;-82
2022/06/10 05:30:50;;;;;;;4.90;4.10;;;14.50;99.80;;;;;;5095152;28;20185;-81
2022/06/10 05:33:17;;;;;;;6.70;4.30;;;14.50;99.90;;;;;;5094751;28;20656;-82
2022/06/10 05:35:43;;;;;;;8.47;5.13;;;14.60;99.90;;;;;;5092958;28;20181;-82
2022/06/10 05:38:09;;;;;;;8.03;5.03;;;14.70;99.90;;;;;;5093440;28;20188;-82
2022/06/10 05:40:36;;;;;;;8.57;5.20;;;14.80;99.70;;;;;;5091347;28;20201;-81
2022/06/10 05:43:02;;;;;;;7.67;4.50;;;14.80;99.50;;;;;;5074180;28;20232;-81
2022/06/10 05:45:29;;;;;;;6.63;4.20;;;14.90;99.90;;;;;;5094474;28;20192;-82
2022/06/10 05:47:58;;;;;;;7.60;4.67;;;15.00;99.90;;;;;;5093381;28;20695;-82
2022/06/10 05:50:32;;;;;;;5.53;4.03;;;15.00;99.90;;;;;;5095757;28;20638;-82
2022/06/10 05:52:58;;;;;;;7.43;4.37;;;15.10;99.90;;;;;;5093158;28;21317;-82
2022/06/10 05:55:24;;;;;;;5.13;4.07;;;15.10;99.90;;;;;;5093820;28;20176;-82
2022/06/10 05:57:51;;;;;;;9.57;5.03;;;15.30;99.10;;;;;;5096154;28;20233;-82
2022/06/10 06:00:23;;;;;;;7.47;4.30;;;15.40;98.50;;;;;;5094855;28;20194;-82
2022/06/10 06:02:49;;;;;;;7.20;4.13;;;15.50;97.80;;;;;;5092769;28;20210;-82
2022/06/10 06:05:15;;;;;;;11.10;4.87;;;15.30;98.00;;;;;;5092676;28;20208;-82
2022/06/10 06:07:44;;;;;;;6.87;4.67;;;15.20;97.50;;;;;;5093446;28;20228;-82
2022/06/10 06:10:13;;;;;;;7.67;4.40;;;15.30;99.20;;;;;;5094271;28;20182;-82
2022/06/10 06:12:38;;;;;;;10.57;4.37;;;15.20;98.60;;;;;;5075355;28;20254;-80
2022/06/10 06:15:04;;;;;;;7.43;4.20;;;15.30;98.50;;;;;;5093877;28;20196;-82
2022/06/10 06:17:30;;;;;;;4.97;3.83;;;15.40;96.70;;;;;;5092344;28;20194;-81
2022/06/10 06:19:56;;;;;;;4.77;3.67;;;15.50;98.40;;;;;;5091385;28;20247;-82
2022/06/10 06:22:21;;;;;;;7.70;4.53;;;15.70;94.70;;;;;;5091674;28;20229;-82
2022/06/10 06:24:47;;;;;;;5.83;3.93;;;15.80;95.00;;;;;;5090316;28;20658;-82
2022/06/10 06:27:16;;;;;;;8.00;4.33;;;15.90;94.10;;;;;;5093769;28;20788;-81
2022/06/10 06:29:43;;;;;;;4.90;3.47;;;16.00;93.90;;;;;;5093285;28;20807;-81
2022/06/10 06:32:10;;;;;;;5.90;4.23;;;16.10;92.80;;;;;;5071915;28;20221;-82
2022/06/10 06:34:38;;;;;;;7.07;4.30;;;16.10;92.50;;;;;;5074972;28;20246;-82
2022/06/10 06:37:04;;;;;;;10.73;4.10;;;16.10;92.60;;;;;;5076525;28;20325;-82
2022/06/10 06:39:31;;;;;;;4.33;3.53;;;16.10;92.00;;;;;;5083787;28;20234;-82
2022/06/10 06:41:57;;;;;;;5.47;3.80;;;16.30;90.90;;;;;;5078905;28;20217;-83
2022/06/10 06:44:23;;;;;;;5.17;4.10;;;16.40;91.20;;;;;;5057755;28;20218;-82
2022/06/10 06:46:49;;;;;;;8.10;3.83;;;16.60;89.80;;;;;;5075356;28;20192;-82
2022/06/10 06:49:19;;;;;;;5.73;4.00;;;16.70;89.10;;;;;;5076227;28;20172;-82
2022/06/10 06:51:45;;;;;;;6.03;3.73;;;16.80;88.90;;;;;;5068676;28;20189;-83
2022/06/10 06:54:11;;;;;;;6.40;3.60;;;16.80;89.70;;;;;;5077449;28;20293;-82
2022/06/10 06:56:38;;;;;;;7.20;3.47;;;17.00;86.70;;;;;;5076365;28;20195;-82
2022/06/10 06:59:05;;;;;;;6.13;3.30;;;17.10;86.40;;;;;;5077229;28;20191;-82
2022/06/10 07:01:31;;;;;;;8.43;4.77;;;17.10;85.60;;;;;;5065525;28;20183;-82
2022/06/10 07:03:57;;;;;;;7.60;3.63;;;16.90;86.90;;;;;;5074870;28;20202;-82
2022/06/10 07:06:23;;;;;;;7.43;3.60;;;17.20;85.70;;;;;;5077134;28;20286;-82
2022/06/10 07:08:50;;;;;;;4.50;3.57;;;17.30;85.60;;;;;;5073430;28;20280;-82
2022/06/10 07:11:16;;;;;;;6.77;3.40;;;17.50;84.80;;;;;;5074691;28;20192;-81
2022/06/10 07:13:43;;;;;;;5.73;3.60;;;17.60;82.90;;;;;;5076471;28;20551;-80
2022/06/10 07:16:10;;;;;;;5.20;3.30;;;17.60;80.60;;;;;;5059943;28;20185;-82
2022/06/10 07:18:37;;;;;;;5.63;3.20;;;17.60;81.80;;;;;;5084832;28;20639;-82
2022/06/10 07:21:03;;;;;;;7.47;3.70;;;17.80;81.50;;;;;;5080235;28;20562;-82
2022/06/10 07:23:28;;;;;;;7.57;3.40;;;17.70;81.40;;;;;;5078734;28;20255;-82
2022/06/10 07:25:55;;;;;;;3.43;3.13;;;17.70;82.60;;;;;;5083132;28;20198;-82
2022/06/10 07:28:21;;;;;;;6.73;3.77;;;17.70;82.20;;;;;;5085016;28;20235;-82
2022/06/10 07:30:47;;;;;;;4.70;3.03;;;17.80;82.50;;;;;;5084360;28;20200;-82
2022/06/10 07:33:13;;;;;;;7.45;3.38;;;18.00;78.40;;;;;;5081553;28;20215;-82
2022/06/10 07:35:39;;;;;;;9.55;3.30;;;18.10;79.80;;;;;;5079893;28;20234;-83
2022/06/10 07:38:07;;;;;;;7.43;3.83;;;18.10;80.60;;;;;;5084131;28;20203;-82
2022/06/10 07:43:20;;;;;;;8.63;3.15;;;18.50;77.80;;;;;;5079337;28;20313;-82
2022/06/10 07:45:46;;;;;;;10.88;4.18;;;18.40;77.40;;;;;;5078177;28;20203;-83
2022/06/10 07:48:13;;;;;;;6.68;3.72;;;18.70;77.50;;;;;;5081748;28;20771;-83
2022/06/10 07:50:44;;;;;;;8.93;3.78;;;18.80;75.60;;;;;;5079253;28;20187;-82
2022/06/10 07:53:10;;;;;;;5.22;3.40;;;18.80;76.70;;;;;;5076982;28;20282;-82
2022/06/10 07:55:38;;;;;;;6.63;4.05;;;18.80;75.80;;;;;;5082652;28;20267;-83
2022/06/10 07:58:05;;;;;;;5.60;3.80;;;18.80;75.80;;;;;;5080819;28;20217;-82
2022/06/10 08:00:31;;;;;;;8.50;3.88;;;18.80;74.90;;;;;;5079965;28;20224;-82
2022/06/10 08:02:57;;;;;;;4.47;3.47;;;18.80;76.40;;;;;;5083047;28;20209;-83
2022/06/10 08:05:23;;;;;;;7.72;4.15;;;18.90;75.20;;;;;;5083296;28;20226;-82
2022/06/10 08:07:50;;;;;;;7.30;3.70;;;19.20;73.80;;;;;;5072666;28;20678;-82
2022/06/10 08:10:30;;;;;;;5.03;3.47;;;19.30;73.60;;;;;;5063366;28;20186;-82
2022/06/10 08:12:55;;;;;;;6.60;3.78;;;19.60;73.70;;;;;;5079722;28;20225;-82
2022/06/10 08:15:23;;;;;;;6.60;3.40;;;19.50;72.20;;;;;;5078734;28;20195;-82
2022/06/10 08:17:49;;;;;;;5.90;3.60;;;19.80;71.20;;;;;;5078321;28;20282;-82
2022/06/10 08:22:32;;;;;;;5.53;3.20;;;19.90;70.40;;;;;;5078254;28;20218;-82
2022/06/10 08:23:12;;;;;;;6.60;3.85;;;20.00;69.70;;;;;;5079854;28;20219;-82
2022/06/10 08:25:38;;;;;;;7.70;3.45;;;20.00;67.60;;;;;;5081304;28;20184;-82
2022/06/10 08:28:03;;;;;;;7.78;3.67;;;19.90;68.40;;;;;;5079324;28;20230;-83
2022/06/10 08:30:29;;;;;;;5.18;3.70;;;19.80;70.00;;;;;;5083711;28;20188;-82
2022/06/10 08:32:55;;;;;;;6.97;3.65;;;19.80;72.30;;;;;;5061678;28;20646;-82
2022/06/10 08:35:20;;;;;;;4.95;3.30;;;20.00;69.90;;;;;;5064934;28;20194;-83
2022/06/10 08:37:46;;;;;;;3.88;3.20;;;20.20;68.90;;;;;;5080187;28;20184;-83
2022/06/10 08:40:22;;;;;;;7.95;4.00;;;20.20;67.90;;;;;;5068245;28;20241;-83
2022/06/10 08:42:51;;;;;;;5.32;3.42;;;20.60;65.90;;;;;;5082795;28;20216;-83
2022/06/10 08:45:30;;;;;;;3.50;3.17;;;20.70;64.30;;;;;;5082005;28;20211;-83
2022/06/10 08:48:06;;;;;;;6.03;2.92;;;20.70;62.70;;;;;;5071195;28;20218;-84
2022/06/10 08:50:44;;;;;;;4.70;2.78;;;20.80;61.50;;;;;;5078466;28;20674;-83
2022/06/10 08:53:33;;;;;;;4.47;3.35;;;21.10;62.70;;;;;;5075662;28;20230;-82
2022/06/10 08:56:28;;;;;;;6.18;3.38;;;21.30;61.50;;;;;;5083779;28;20195;-83
2022/06/10 08:59:08;;;;;;;4.13;2.97;;;21.20;60.50;;;;;;5079541;28;20642;-82
2022/06/10 09:02:05;;;;;;;5.85;3.08;;;21.20;61.20;;;;;;5074257;28;20190;-83
2022/06/10 09:04:52;;;;;;;4.65;2.72;;;21.60;57.20;;;;;;5069575;28;20660;-83
2022/06/10 09:07:28;;;;;;;3.22;2.92;;;21.70;56.70;;;;;;5069991;28;20225;-83
2022/06/10 09:09:57;;;;;;;5.40;3.20;;;21.90;57.00;;;;;;5077133;28;20553;-83
2022/06/10 09:12:58;;;;;;;3.70;3.00;;;22.00;56.30;;;;;;5070069;28;20345;-83
2022/06/10 09:15:28;;;;;;;6.93;3.42;;;22.20;56.30;;;;;;5071959;28;20198;-83
2022/06/10 09:18:03;;;;;;;3.95;2.72;;;22.30;56.50;;;;;;5071685;28;20188;-84
2022/06/10 09:20:38;;;;;;;5.55;2.90;;;22.40;52.10;;;;;;5054146;28;20187;-84
2022/06/10 09:23:17;;;;;;;4.30;3.20;;;22.40;55.20;;;;;;5072537;28;20211;-83
2022/06/10 09:25:48;;;;;;;4.30;3.25;;;22.70;56.00;;;;;;5055313;28;20219;-83
2022/06/10 09:28:14;;;;;;;4.43;2.70;;;22.90;54.50;;;;;;5076831;28;20211;-84
2022/06/10 09:30:58;;;;;;;8.60;3.35;;;22.80;53.60;;;;;;5075532;28;20187;-83
2022/06/10 09:34:01;;;;;;;4.60;3.10;;;23.00;52.40;;;;;;5069488;28;20558;-84
2022/06/10 09:36:47;;;;;;;5.95;3.55;;;23.00;51.40;;;;;;5067526;28;20202;-84
2022/06/10 09:42:30;;;;;;;4.47;2.97;;;23.30;50.10;;;;;;5073682;28;20242;-84
2022/06/10 09:45:35;;;;;;;5.18;2.88;;;23.40;47.30;;;;;;5070666;28;20199;-83
2022/06/10 09:48:26;;;;;;;5.65;2.88;;;23.50;49.00;;;;;;5023446;28;20235;-84
2022/06/10 09:51:58;;;;;;;3.83;3.17;;;23.70;48.60;;;;;;5073065;28;20240;-84
2022/06/10 09:54:29;;;;;;;4.53;3.50;;;23.80;49.10;;;;;;5008348;28;20184;-84
2022/06/10 09:57:21;;;;;;;4.75;3.03;;;23.90;49.30;;;;;;5003768;28;20290;-83
2022/06/10 10:00:04;;;;;;;5.22;3.88;;;23.90;47.00;;;;;;5063261;28;20211;-84
2022/06/10 10:02:58;;;;;;;5.43;3.45;;;24.00;46.30;;;;;;5072365;28;20207;-81
2022/06/10 10:05:55;;;;;;;8.77;4.07;;;24.00;47.60;;;;;;5074277;28;20183;-81
2022/06/10 10:08:31;;;;;;;5.43;3.38;;;24.10;46.40;;;;;;5072334;28;20239;-81
2022/06/10 10:11:25;;;;;;;4.32;2.90;;;24.30;48.90;;;;;;5074096;28;20236;-81
2022/06/10 10:13:56;;;;;;;5.82;3.03;;;24.50;46.30;;;;;;5073572;28;20203;-82
2022/06/10 10:17:00;;;;;;;6.32;2.80;;;24.70;44.70;;;;;;5075001;28;20265;-83
2022/06/10 10:19:51;;;;;;;4.82;3.08;;;24.80;45.80;;;;;;5059726;28;20195;-81
2022/06/10 10:23:06;;;;;;;5.88;3.05;;;24.80;44.40;;;;;;5082638;28;20786;-82
2022/06/10 10:25:32;;;;;;;4.63;3.08;;;25.10;41.70;;;;;;5061150;28;20191;-82
2022/06/10 10:27:58;;;;;;;5.80;3.50;;;25.20;42.70;;;;;;5064622;28;20265;-82
2022/06/10 10:30:42;;;;;;;4.45;3.10;;;25.30;42.20;;;;;;5082670;28;20200;-83
2022/06/10 10:33:12;;;;;;;6.10;3.33;;;25.50;41.80;;;;;;5086787;28;20612;-82
2022/06/10 10:35:42;;;;;;;5.88;3.10;;;25.50;42.30;;;;;;5084870;28;20180;-82
2022/06/10 10:38:26;;;;;;;4.22;2.97;;;25.60;42.40;;;;;;5081721;28;20205;-82
2022/06/10 10:40:52;;;;;;;5.15;3.30;;;25.70;40.90;;;;;;5066803;28;20203;-83
2022/06/10 10:43:26;;;;;;;3.88;2.70;;;25.90;39.70;;;;;;5083364;28;20282;-83
2022/06/10 10:46:00;;;;;;;4.20;2.63;;;26.10;41.40;;;;;;5076146;28;20200;-83
2022/06/10 10:48:31;;;;;;;3.70;3.00;;;26.20;40.80;;;;;;5084994;28;20185;-83
2022/06/10 10:51:05;;;;;;;5.00;2.90;;;26.30;39.10;;;;;;5082504;28;20252;-83
2022/06/10 10:54:17;;;;;;;7.43;3.03;;;26.30;40.10;;;;;;5065599;28;20803;-82
2022/06/10 10:56:47;;;;;;;5.43;3.05;;;26.50;38.50;;;;;;5055544;28;20190;-84
2022/06/10 10:59:22;;;;;;;5.38;3.03;;;26.30;38.40;;;;;;5083617;28;20188;-82
2022/06/10 11:01:50;;;;;;;5.07;3.10;;;26.70;38.70;;;;;;5082472;28;20830;-82
2022/06/10 11:04:34;;;;;;;3.03;2.55;;;26.80;38.20;;;;;;5077625;28;20194;-82
2022/06/10 11:07:18;;;;;;;6.18;3.25;;;26.70;37.50;;;;;;5083017;28;20221;-82
2022/06/10 11:09:53;;;;;;;4.72;2.97;;;26.80;38.50;;;;;;5083637;28;20179;-82
2022/06/10 11:12:25;;;;;;;2.97;2.42;;;26.90;36.70;;;;;;5084115;28;20202;-82
2022/06/10 11:15:12;;;;;;;5.78;2.97;;;27.20;37.50;;;;;;5083639;28;20245;-83
2022/06/10 11:17:43;;;;;;;4.78;3.25;;;27.20;36.90;;;;;;5069712;28;20241;-82
2022/06/10 11:20:16;;;;;;;4.32;2.80;;;27.20;36.80;;;;;;5080984;28;20193;-82
2022/06/10 11:22:44;;;;;;;4.80;3.15;;;27.30;36.70;;;;;;5084290;28;20290;-82
2022/06/10 11:25:14;;;;;;;4.47;2.85;;;27.40;36.80;;;;;;5064426;28;20184;-83
2022/06/10 11:27:49;;;;;;;4.65;2.72;;;27.50;35.80;;;;;;5086747;28;20191;-83
2022/06/10 11:30:19;;;;;;;6.82;3.08;;;27.90;35.20;;;;;;5085914;28;20205;-83
2022/06/10 11:32:48;;;;;;;5.07;3.13;;;28.10;36.20;;;;;;5088322;28;20202;-83
2022/06/10 11:35:37;;;;;;;3.60;2.90;;;28.30;35.80;;;;;;5086958;28;20210;-83
2022/06/10 11:38:22;;;;;;;4.70;2.58;;;28.50;34.40;;;;;;5073327;28;20250;-82
2022/06/10 11:40:48;;;;;;;5.85;3.03;;;28.70;34.90;;;;;;5088626;28;20191;-83
2022/06/10 11:43:25;;;;;;;4.30;3.13;;;28.70;34.70;;;;;;5088521;28;20343;-83
2022/06/10 11:46:04;;;;;;;4.72;3.03;;;28.70;34.40;;;;;;5082836;28;20262;-83
2022/06/10 11:48:48;;;;;;;4.18;2.90;;;28.70;34.20;;;;;;5084882;28;20232;-84
2022/06/10 11:51:34;;;;;;;4.00;2.95;;;28.70;33.50;;;;;;5088698;28;20175;-83
2022/06/10 11:54:17;;;;;;;4.43;3.17;;;28.30;33.40;;;;;;5079454;28;20187;-83
2022/06/10 12:00:17;;;;;;;5.03;2.80;;;28.50;33.90;;;;;;5089398;28;20249;-82
2022/06/10 12:03:01;;;;;;;4.30;2.90;;;28.20;33.60;;;;;;5078871;28;20215;-83
2022/06/10 12:05:36;;;;;;;3.42;2.60;;;28.60;34.60;;;;;;5065910;28;20207;-82
2022/06/10 12:08:32;;;;;;;6.20;3.05;;;29.20;31.90;;;;;;5085342;28;20602;-82
2022/06/10 12:11:11;;;;;;;4.38;2.85;;;28.90;31.00;;;;;;5081209;28;20175;-83
2022/06/10 12:13:44;;;;;;;3.78;3.00;;;28.40;31.70;;;;;;5082562;28;20270;-84
2022/06/10 12:16:10;;;;;;;3.30;2.72;;;29.20;31.10;;;;;;5080865;28;20183;-83
2022/06/10 12:18:50;;;;;;;3.83;2.72;;;29.60;29.80;;;;;;5085656;28;20183;-83
2022/06/10 12:21:23;;;;;;;4.63;2.78;;;29.90;30.90;;;;;;5082656;28;20176;-82
2022/06/10 12:23:49;;;;;;;5.72;2.78;;;29.30;31.30;;;;;;5083180;28;20257;-83
2022/06/10 12:26:30;;;;;;;4.82;2.92;;;29.30;29.90;;;;;;5083036;28;20184;-83
2022/06/10 12:29:09;;;;;;;8.38;3.03;;;29.00;30.80;;;;;;5078218;28;20749;-83
2022/06/10 12:31:47;;;;;;;6.10;2.85;;;29.30;30.20;;;;;;5083339;28;20179;-83
2022/06/10 12:34:18;;;;;;;4.65;2.70;;;29.70;29.90;;;;;;5079281;28;20218;-83
2022/06/10 12:36:53;;;;;;;6.70;2.95;;;30.00;29.80;;;;;;5078507;28;20195;-83
2022/06/10 12:39:24;;;;;;;4.68;2.92;;;29.50;30.70;;;;;;5083250;28;20182;-83
2022/06/10 12:41:58;;;;;;;4.32;2.83;;;29.10;31.20;;;;;;5065976;28;20196;-84
2022/06/10 12:44:28;;;;;;;2.63;2.42;;;28.80;31.20;;;;;;5078342;28;20307;-84
2022/06/10 12:46:59;;;;;;;4.40;3.15;;;29.00;31.70;;;;;;5082228;28;20211;-83
2022/06/10 12:49:45;;;;;;;3.47;2.95;;;29.90;29.70;;;;;;5090117;28;20180;-84
2022/06/10 12:52:26;;;;;;;4.75;3.00;;;30.30;29.60;;;;;;5080381;28;20454;-83
2022/06/10 12:55:04;;;;;;;3.83;2.83;;;30.00;29.40;;;;;;5084711;28;20171;-84
2022/06/10 12:57:45;;;;;;;3.88;2.72;;;29.90;29.30;;;;;;5077315;28;20211;-84
2022/06/10 13:00:17;;;;;;;2.50;2.30;;;29.50;29.30;;;;;;5070013;28;20180;-85
2022/06/10 13:02:50;;;;;;;3.15;2.45;;;29.70;29.30;;;;;;5086384;28;20210;-84
2022/06/10 13:05:31;;;;;;;4.60;2.75;;;30.30;28.40;;;;;;5088613;28;20256;-85
2022/06/10 13:07:58;;;;;;;3.92;2.90;;;30.90;28.30;;;;;;5077371;28;20220;-84
2022/06/10 13:10:32;;;;;;;5.35;2.90;;;31.00;28.20;;;;;;5087274;28;20194;-84
2022/06/10 13:13:25;;;;;;;4.10;2.90;;;31.10;28.00;;;;;;5084510;28;20202;-85
2022/06/10 13:15:54;;;;;;;3.78;2.67;;;31.60;27.30;;;;;;5071046;28;20568;-85
2022/06/10 13:18:30;;;;;;;5.32;2.95;;;31.60;27.50;;;;;;5085061;28;20180;-84
2022/06/10 13:21:05;;;;;;;3.53;2.63;;;31.80;26.50;;;;;;5083196;28;20201;-85
2022/06/10 13:24:07;;;;;;;2.92;2.60;;;32.20;26.50;;;;;;5084736;28;20199;-84
2022/06/10 13:26:33;;;;;;;3.22;2.90;;;31.50;26.90;;;;;;5083674;28;20228;-84
2022/06/10 13:29:15;;;;;;;4.25;2.90;;;31.30;26.80;;;;;;5087482;28;20192;-84
2022/06/10 13:31:48;;;;;;;3.13;2.80;;;31.60;26.70;;;;;;5087772;28;20175;-84
2022/06/10 13:34:34;;;;;;;2.90;2.60;;;31.80;26.60;;;;;;5085596;28;20190;-84